sensor_id;sensor_type;location;lat;lon;timestamp;temperature;humidity
22065;DHT22;11197;53.110;8.468;2023-05-29T00:00:29;12.20;99.90
22065;DHT22;11197;53.110;8.468;2023-05-29T00:02:55;12.20;99.90
22065;DHT22;11197;53.110;8.468;2023-05-29T00:05:20;12.20;99.90
22065;DHT22;11197;53.110;8.468;2023-05-29T00:07:46;12.20;99.90
22065;DHT22;11197;53.110;8.468;2023-05-29T00:10:13;12.20;99.90
22065;DHT22;11197;53.110;8.468;2023-05-29T00:12:40;12.20;99.90
22065;DHT22;11197;53.110;8.468;2023-05-29T00:15:07;12.10;99.90
22065;DHT22;11197;53.110;8.468;2023-05-29T00:17:33;12.20;99.90
22065;DHT22;11197;53.110;8.468;2023-05-29T00:20:00;12.20;99.90
22065;DHT22;11197;53.110;8.468;2023-05-29T00:22:27;12.10;99.90
22065;DHT22;11197;53.110;8.468;2023-05-29T00:24:53;12.10;99.90
22065;DHT22;11197;53.110;8.468;2023-05-29T00:27:19;12.10;99.90
22065;DHT22;11197;53.110;8.468;2023-05-29T00:29:46;12.10;99.90
22065;DHT22;11197;53.110;8.468;2023-05-29T00:32:11;12.10;99.90
22065;DHT22;11197;53.110;8.468;2023-05-29T00:34:37;12.10;99.90
22065;DHT22;11197;53.110;8.468;2023-05-29T00:37:03;12.00;99.90
22065;DHT22;11197;53.110;8.468;2023-05-29T00:39:29;12.00;99.90
22065;DHT22;11197;53.110;8.468;2023-05-29T00:41:55;12.00;99.90
22065;DHT22;11197;53.110;8.468;2023-05-29T00:44:21;11.90;99.90
22065;DHT22;11197;53.110;8.468;2023-05-29T00:46:49;11.90;99.90
22065;DHT22;11197;53.110;8.468;2023-05-29T00:49:16;11.90;99.90
22065;DHT22;11197;53.110;8.468;2023-05-29T00:51:43;11.80;99.90
22065;DHT22;11197;53.110;8.468;2023-05-29T00:54:12;11.80;99.90
22065;DHT22;11197;53.110;8.468;2023-05-29T00:56:40;11.80;99.90
22065;DHT22;11197;53.110;8.468;2023-05-29T00:59:10;11.70;99.90
22065;DHT22;11197;53.110;8.468;2023-05-29T01:01:36;11.70;99.90
22065;DHT22;11197;53.110;8.468;2023-05-29T01:04:04;11.80;99.90
22065;DHT22;11197;53.110;8.468;2023-05-29T01:06:32;11.70;99.90
22065;DHT22;11197;53.110;8.468;2023-05-29T01:08:58;11.70;99.90
22065;DHT22;11197;53.110;8.468;2023-05-29T01:11:50;11.70;99.90
22065;DHT22;11197;53.110;8.468;2023-05-29T01:14:42;11.70;99.90
22065;DHT22;11197;53.110;8.468;2023-05-29T01:17:17;11.70;99.90
22065;DHT22;11197;53.110;8.468;2023-05-29T01:28:04;11.60;99.90
22065;DHT22;11197;53.110;8.468;2023-05-29T01:30:31;11.50;99.90
22065;DHT22;11197;53.110;8.468;2023-05-29T01:32:59;11.50;99.90
22065;DHT22;11197;53.110;8.468;2023-05-29T01:35:25;11.50;99.90
22065;DHT22;11197;53.110;8.468;2023-05-29T01:37:53;11.50;99.90
22065;DHT22;11197;53.110;8.468;2023-05-29T01:40:21;11.50;99.90
22065;DHT22;11197;53.110;8.468;2023-05-29T01:42:48;11.40;99.90
22065;DHT22;11197;53.110;8.468;2023-05-29T01:45:14;11.40;99.90
22065;DHT22;11197;53.110;8.468;2023-05-29T01:47:40;11.30;99.90
22065;DHT22;11197;53.110;8.468;2023-05-29T01:50:06;11.30;99.90
22065;DHT22;11197;53.110;8.468;2023-05-29T01:52:34;11.20;99.90
22065;DHT22;11197;53.110;8.468;2023-05-29T01:55:00;11.20;99.90
22065;DHT22;11197;53.110;8.468;2023-05-29T01:57:26;11.20;99.90
22065;DHT22;11197;53.110;8.468;2023-05-29T01:59:53;11.20;99.90
22065;DHT22;11197;53.110;8.468;2023-05-29T02:02:21;11.20;99.90
22065;DHT22;11197;53.110;8.468;2023-05-29T02:04:47;11.10;99.90
22065;DHT22;11197;53.110;8.468;2023-05-29T02:07:13;11.10;99.90
22065;DHT22;11197;53.110;8.468;2023-05-29T02:09:40;11.10;99.90
22065;DHT22;11197;53.110;8.468;2023-05-29T02:12:06;11.10;99.90
22065;DHT22;11197;53.110;8.468;2023-05-29T02:14:34;11.10;99.90
22065;DHT22;11197;53.110;8.468;2023-05-29T02:16:59;11.00;99.90
22065;DHT22;11197;53.110;8.468;2023-05-29T02:19:27;11.00;99.90
22065;DHT22;11197;53.110;8.468;2023-05-29T02:21:54;10.90;99.90
22065;DHT22;11197;53.110;8.468;2023-05-29T02:24:20;10.90;99.90
22065;DHT22;11197;53.110;8.468;2023-05-29T02:26:48;10.90;99.90
22065;DHT22;11197;53.110;8.468;2023-05-29T02:29:15;10.80;99.90
22065;DHT22;11197;53.110;8.468;2023-05-29T02:31:41;10.80;99.90
22065;DHT22;11197;53.110;8.468;2023-05-29T02:34:07;10.80;99.90
22065;DHT22;11197;53.110;8.468;2023-05-29T02:36:33;10.80;99.90
22065;DHT22;11197;53.110;8.468;2023-05-29T02:39:00;10.80;99.90
22065;DHT22;11197;53.110;8.468;2023-05-29T02:41:26;10.70;99.90
22065;DHT22;11197;53.110;8.468;2023-05-29T02:43:52;10.70;99.90
22065;DHT22;11197;53.110;8.468;2023-05-29T02:46:20;10.70;99.90
22065;DHT22;11197;53.110;8.468;2023-05-29T02:48:48;10.70;99.90
22065;DHT22;11197;53.110;8.468;2023-05-29T02:51:17;10.60;99.90
22065;DHT22;11197;53.110;8.468;2023-05-29T02:53:43;10.60;99.90
22065;DHT22;11197;53.110;8.468;2023-05-29T02:56:09;10.50;99.90
22065;DHT22;11197;53.110;8.468;2023-05-29T02:58:35;10.50;99.90
22065;DHT22;11197;53.110;8.468;2023-05-29T03:01:01;10.50;99.90
22065;DHT22;11197;53.110;8.468;2023-05-29T03:03:29;10.40;99.90
22065;DHT22;11197;53.110;8.468;2023-05-29T03:05:55;10.40;99.90
22065;DHT22;11197;53.110;8.468;2023-05-29T03:08:21;10.40;99.90
22065;DHT22;11197;53.110;8.468;2023-05-29T03:10:47;10.40;99.90
22065;DHT22;11197;53.110;8.468;2023-05-29T03:13:14;10.30;99.90
22065;DHT22;11197;53.110;8.468;2023-05-29T03:15:48;10.30;99.90
22065;DHT22;11197;53.110;8.468;2023-05-29T03:18:19;10.20;99.90
22065;DHT22;11197;53.110;8.468;2023-05-29T03:20:45;10.20;99.90
22065;DHT22;11197;53.110;8.468;2023-05-29T03:23:11;10.20;99.90
22065;DHT22;11197;53.110;8.468;2023-05-29T03:25:37;10.20;99.90
22065;DHT22;11197;53.110;8.468;2023-05-29T03:28:02;10.10;99.90
22065;DHT22;11197;53.110;8.468;2023-05-29T03:30:29;10.10;99.90
22065;DHT22;11197;53.110;8.468;2023-05-29T03:32:55;10.10;99.90
22065;DHT22;11197;53.110;8.468;2023-05-29T03:35:30;10.00;99.90
22065;DHT22;11197;53.110;8.468;2023-05-29T03:37:56;10.00;99.90
22065;DHT22;11197;53.110;8.468;2023-05-29T03:40:22;10.00;99.90
22065;DHT22;11197;53.110;8.468;2023-05-29T03:42:51;10.00;99.90
22065;DHT22;11197;53.110;8.468;2023-05-29T03:45:17;10.00;99.90
22065;DHT22;11197;53.110;8.468;2023-05-29T03:47:43;9.90;99.90
22065;DHT22;11197;53.110;8.468;2023-05-29T03:50:09;9.90;99.90
22065;DHT22;11197;53.110;8.468;2023-05-29T03:52:36;9.90;99.90
22065;DHT22;11197;53.110;8.468;2023-05-29T03:55:02;10.00;99.90
22065;DHT22;11197;53.110;8.468;2023-05-29T03:57:28;9.90;99.90
22065;DHT22;11197;53.110;8.468;2023-05-29T03:59:54;9.90;99.90
22065;DHT22;11197;53.110;8.468;2023-05-29T04:02:26;10.00;99.90
22065;DHT22;11197;53.110;8.468;2023-05-29T04:05:05;9.90;99.90
22065;DHT22;11197;53.110;8.468;2023-05-29T04:07:33;9.90;99.90
22065;DHT22;11197;53.110;8.468;2023-05-29T04:09:59;9.90;99.90
22065;DHT22;11197;53.110;8.468;2023-05-29T04:12:24;9.90;99.90
22065;DHT22;11197;53.110;8.468;2023-05-29T04:14:50;9.90;99.90
22065;DHT22;11197;53.110;8.468;2023-05-29T04:17:16;9.90;99.90
22065;DHT22;11197;53.110;8.468;2023-05-29T04:19:42;10.00;99.90
22065;DHT22;11197;53.110;8.468;2023-05-29T04:22:08;10.00;99.90
22065;DHT22;11197;53.110;8.468;2023-05-29T04:24:34;10.00;99.90
22065;DHT22;11197;53.110;8.468;2023-05-29T04:27:01;10.00;99.90
22065;DHT22;11197;53.110;8.468;2023-05-29T04:29:31;10.00;99.90
22065;DHT22;11197;53.110;8.468;2023-05-29T04:31:59;10.00;99.90
22065;DHT22;11197;53.110;8.468;2023-05-29T04:34:29;10.00;99.90
22065;DHT22;11197;53.110;8.468;2023-05-29T04:36:59;10.10;99.90
22065;DHT22;11197;53.110;8.468;2023-05-29T04:39:25;10.00;99.90
22065;DHT22;11197;53.110;8.468;2023-05-29T04:41:51;10.10;99.90
22065;DHT22;11197;53.110;8.468;2023-05-29T04:44:21;10.10;99.90
22065;DHT22;11197;53.110;8.468;2023-05-29T04:46:51;10.10;99.90
22065;DHT22;11197;53.110;8.468;2023-05-29T04:49:17;10.10;99.90
22065;DHT22;11197;53.110;8.468;2023-05-29T04:51:43;10.10;99.90
22065;DHT22;11197;53.110;8.468;2023-05-29T04:54:10;10.10;99.90
22065;DHT22;11197;53.110;8.468;2023-05-29T04:56:38;10.20;99.90
22065;DHT22;11197;53.110;8.468;2023-05-29T04:59:07;10.20;99.90
22065;DHT22;11197;53.110;8.468;2023-05-29T05:01:33;10.20;99.90
22065;DHT22;11197;53.110;8.468;2023-05-29T05:04:00;10.20;99.90
22065;DHT22;11197;53.110;8.468;2023-05-29T05:06:25;10.30;99.90
22065;DHT22;11197;53.110;8.468;2023-05-29T05:08:52;10.30;99.90
22065;DHT22;11197;53.110;8.468;2023-05-29T05:11:21;10.30;99.90
22065;DHT22;11197;53.110;8.468;2023-05-29T05:13:47;10.30;99.90
22065;DHT22;11197;53.110;8.468;2023-05-29T05:16:13;10.40;99.90
22065;DHT22;11197;53.110;8.468;2023-05-29T05:18:41;10.40;99.90
22065;DHT22;11197;53.110;8.468;2023-05-29T05:21:07;10.40;99.90
22065;DHT22;11197;53.110;8.468;2023-05-29T05:23:35;10.40;99.90
22065;DHT22;11197;53.110;8.468;2023-05-29T05:26:01;10.40;99.90
22065;DHT22;11197;53.110;8.468;2023-05-29T05:28:28;10.50;99.90
22065;DHT22;11197;53.110;8.468;2023-05-29T05:30:53;10.50;99.90
22065;DHT22;11197;53.110;8.468;2023-05-29T05:33:19;10.50;99.90
22065;DHT22;11197;53.110;8.468;2023-05-29T05:35:49;10.50;99.90
22065;DHT22;11197;53.110;8.468;2023-05-29T05:38:15;10.60;99.90
22065;DHT22;11197;53.110;8.468;2023-05-29T05:40:41;10.70;99.90
22065;DHT22;11197;53.110;8.468;2023-05-29T05:43:14;10.80;99.90
22065;DHT22;11197;53.110;8.468;2023-05-29T05:45:59;10.90;99.90
22065;DHT22;11197;53.110;8.468;2023-05-29T05:48:27;11.10;99.90
22065;DHT22;11197;53.110;8.468;2023-05-29T05:50:53;11.20;99.90
22065;DHT22;11197;53.110;8.468;2023-05-29T05:53:19;11.30;99.90
22065;DHT22;11197;53.110;8.468;2023-05-29T05:55:46;11.40;99.90
22065;DHT22;11197;53.110;8.468;2023-05-29T05:58:12;11.60;99.90
22065;DHT22;11197;53.110;8.468;2023-05-29T06:00:40;11.70;99.90
22065;DHT22;11197;53.110;8.468;2023-05-29T06:03:06;11.80;99.90
22065;DHT22;11197;53.110;8.468;2023-05-29T06:05:49;12.00;99.90
22065;DHT22;11197;53.110;8.468;2023-05-29T06:08:16;12.10;99.90
22065;DHT22;11197;53.110;8.468;2023-05-29T06:10:43;12.20;99.90
22065;DHT22;11197;53.110;8.468;2023-05-29T06:13:09;12.40;99.90
22065;DHT22;11197;53.110;8.468;2023-05-29T06:15:44;12.50;99.90
22065;DHT22;11197;53.110;8.468;2023-05-29T06:18:10;12.60;99.90
22065;DHT22;11197;53.110;8.468;2023-05-29T06:20:38;12.70;99.90
22065;DHT22;11197;53.110;8.468;2023-05-29T06:23:04;12.80;99.90
22065;DHT22;11197;53.110;8.468;2023-05-29T06:25:30;12.80;99.90
22065;DHT22;11197;53.110;8.468;2023-05-29T06:28:00;12.80;99.90
22065;DHT22;11197;53.110;8.468;2023-05-29T06:30:27;12.90;99.90
22065;DHT22;11197;53.110;8.468;2023-05-29T06:32:53;12.90;99.90
22065;DHT22;11197;53.110;8.468;2023-05-29T06:35:23;13.00;99.90
22065;DHT22;11197;53.110;8.468;2023-05-29T06:37:52;13.00;99.90
22065;DHT22;11197;53.110;8.468;2023-05-29T06:40:18;13.00;99.90
22065;DHT22;11197;53.110;8.468;2023-05-29T06:42:44;13.10;99.90
22065;DHT22;11197;53.110;8.468;2023-05-29T06:45:14;13.10;99.90
22065;DHT22;11197;53.110;8.468;2023-05-29T06:47:43;13.10;99.90
22065;DHT22;11197;53.110;8.468;2023-05-29T06:50:09;13.10;99.90
22065;DHT22;11197;53.110;8.468;2023-05-29T06:52:37;13.10;99.90
22065;DHT22;11197;53.110;8.468;2023-05-29T06:55:08;13.10;99.90
22065;DHT22;11197;53.110;8.468;2023-05-29T06:57:35;13.20;99.90
22065;DHT22;11197;53.110;8.468;2023-05-29T07:00:01;13.10;99.90
22065;DHT22;11197;53.110;8.468;2023-05-29T07:02:28;13.10;99.90
22065;DHT22;11197;53.110;8.468;2023-05-29T07:04:57;13.10;99.90
22065;DHT22;11197;53.110;8.468;2023-05-29T07:07:24;13.20;99.90
22065;DHT22;11197;53.110;8.468;2023-05-29T07:09:50;13.20;99.90
22065;DHT22;11197;53.110;8.468;2023-05-29T07:12:16;13.20;99.90
22065;DHT22;11197;53.110;8.468;2023-05-29T07:14:42;13.30;99.90
22065;DHT22;11197;53.110;8.468;2023-05-29T07:17:08;13.30;99.90
22065;DHT22;11197;53.110;8.468;2023-05-29T07:19:33;13.30;99.90
22065;DHT22;11197;53.110;8.468;2023-05-29T07:22:01;13.40;99.90
22065;DHT22;11197;53.110;8.468;2023-05-29T07:24:27;13.40;99.90
22065;DHT22;11197;53.110;8.468;2023-05-29T07:26:53;13.50;99.90
22065;DHT22;11197;53.110;8.468;2023-05-29T07:29:21;13.60;99.90
22065;DHT22;11197;53.110;8.468;2023-05-29T07:31:52;13.60;99.90
22065;DHT22;11197;53.110;8.468;2023-05-29T07:34:20;13.60;99.90
22065;DHT22;11197;53.110;8.468;2023-05-29T07:37:16;13.60;99.90
22065;DHT22;11197;53.110;8.468;2023-05-29T07:39:44;13.70;99.90
22065;DHT22;11197;53.110;8.468;2023-05-29T07:42:29;13.90;99.90
22065;DHT22;11197;53.110;8.468;2023-05-29T07:44:54;14.20;99.90
22065;DHT22;11197;53.110;8.468;2023-05-29T07:47:22;14.20;99.90
22065;DHT22;11197;53.110;8.468;2023-05-29T07:49:48;14.10;99.90
22065;DHT22;11197;53.110;8.468;2023-05-29T07:52:14;14.10;99.90
22065;DHT22;11197;53.110;8.468;2023-05-29T07:54:40;14.10;99.90
22065;DHT22;11197;53.110;8.468;2023-05-29T07:57:13;14.00;99.90
22065;DHT22;11197;53.110;8.468;2023-05-29T07:59:42;13.90;99.90
22065;DHT22;11197;53.110;8.468;2023-05-29T08:02:08;13.90;99.90
22065;DHT22;11197;53.110;8.468;2023-05-29T08:05:10;13.80;99.90
22065;DHT22;11197;53.110;8.468;2023-05-29T08:07:37;13.80;99.90
22065;DHT22;11197;53.110;8.468;2023-05-29T08:10:03;13.80;99.90
22065;DHT22;11197;53.110;8.468;2023-05-29T08:12:31;13.80;99.90
22065;DHT22;11197;53.110;8.468;2023-05-29T08:14:58;13.80;99.90
22065;DHT22;11197;53.110;8.468;2023-05-29T08:17:24;13.80;99.90
22065;DHT22;11197;53.110;8.468;2023-05-29T08:19:50;13.80;99.90
22065;DHT22;11197;53.110;8.468;2023-05-29T08:22:16;13.80;99.90
22065;DHT22;11197;53.110;8.468;2023-05-29T08:24:42;13.90;99.90
22065;DHT22;11197;53.110;8.468;2023-05-29T08:27:08;13.80;99.90
22065;DHT22;11197;53.110;8.468;2023-05-29T08:29:33;13.80;99.90
22065;DHT22;11197;53.110;8.468;2023-05-29T08:31:59;13.90;99.90
22065;DHT22;11197;53.110;8.468;2023-05-29T08:34:25;13.90;99.90
22065;DHT22;11197;53.110;8.468;2023-05-29T08:36:51;13.80;99.90
22065;DHT22;11197;53.110;8.468;2023-05-29T08:39:17;13.80;99.90
22065;DHT22;11197;53.110;8.468;2023-05-29T08:42:04;13.90;99.90
22065;DHT22;11197;53.110;8.468;2023-05-29T08:44:33;13.90;99.90
22065;DHT22;11197;53.110;8.468;2023-05-29T08:47:02;13.90;99.90
22065;DHT22;11197;53.110;8.468;2023-05-29T08:49:31;14.00;99.90
22065;DHT22;11197;53.110;8.468;2023-05-29T08:52:17;14.00;99.90
22065;DHT22;11197;53.110;8.468;2023-05-29T08:54:44;14.00;99.90
22065;DHT22;11197;53.110;8.468;2023-05-29T08:57:11;14.00;99.90
22065;DHT22;11197;53.110;8.468;2023-05-29T08:59:42;14.00;99.90
22065;DHT22;11197;53.110;8.468;2023-05-29T09:02:08;14.00;99.90
22065;DHT22;11197;53.110;8.468;2023-05-29T09:04:34;14.10;99.90
22065;DHT22;11197;53.110;8.468;2023-05-29T09:06:59;14.20;99.90
22065;DHT22;11197;53.110;8.468;2023-05-29T09:09:26;14.20;99.90
22065;DHT22;11197;53.110;8.468;2023-05-29T09:11:56;14.20;99.90
22065;DHT22;11197;53.110;8.468;2023-05-29T09:14:36;14.20;99.90
22065;DHT22;11197;53.110;8.468;2023-05-29T09:17:03;14.30;99.90
22065;DHT22;11197;53.110;8.468;2023-05-29T09:19:29;14.30;99.90
22065;DHT22;11197;53.110;8.468;2023-05-29T09:22:25;14.30;99.90
22065;DHT22;11197;53.110;8.468;2023-05-29T09:24:50;14.30;99.90
22065;DHT22;11197;53.110;8.468;2023-05-29T09:27:17;14.30;99.90
22065;DHT22;11197;53.110;8.468;2023-05-29T09:29:45;14.30;99.90
22065;DHT22;11197;53.110;8.468;2023-05-29T09:32:20;14.30;99.90
22065;DHT22;11197;53.110;8.468;2023-05-29T09:34:46;14.30;99.90
22065;DHT22;11197;53.110;8.468;2023-05-29T09:37:12;14.30;99.90
22065;DHT22;11197;53.110;8.468;2023-05-29T09:42:08;14.40;99.90
22065;DHT22;11197;53.110;8.468;2023-05-29T09:44:35;14.40;99.90
22065;DHT22;11197;53.110;8.468;2023-05-29T09:47:01;14.40;99.90
22065;DHT22;11197;53.110;8.468;2023-05-29T09:49:27;14.40;99.90
22065;DHT22;11197;53.110;8.468;2023-05-29T09:51:54;14.50;99.90
22065;DHT22;11197;53.110;8.468;2023-05-29T09:54:20;14.80;99.90
22065;DHT22;11197;53.110;8.468;2023-05-29T09:56:46;15.10;99.90
22065;DHT22;11197;53.110;8.468;2023-05-29T09:59:14;15.40;99.90
22065;DHT22;11197;53.110;8.468;2023-05-29T10:01:41;15.50;99.90
22065;DHT22;11197;53.110;8.468;2023-05-29T10:04:12;15.50;99.90
22065;DHT22;11197;53.110;8.468;2023-05-29T10:06:45;15.50;99.90
22065;DHT22;11197;53.110;8.468;2023-05-29T10:09:12;15.40;99.90
22065;DHT22;11197;53.110;8.468;2023-05-29T10:11:43;15.40;99.90
22065;DHT22;11197;53.110;8.468;2023-05-29T10:14:13;15.40;99.90
22065;DHT22;11197;53.110;8.468;2023-05-29T10:16:42;15.40;99.90
22065;DHT22;11197;53.110;8.468;2023-05-29T10:19:13;15.30;99.90
22065;DHT22;11197;53.110;8.468;2023-05-29T10:21:42;15.30;99.90
22065;DHT22;11197;53.110;8.468;2023-05-29T10:24:10;15.30;99.90
22065;DHT22;11197;53.110;8.468;2023-05-29T10:26:39;15.30;99.90
22065;DHT22;11197;53.110;8.468;2023-05-29T10:29:18;15.30;99.90
22065;DHT22;11197;53.110;8.468;2023-05-29T10:35:11;15.30;99.90
22065;DHT22;11197;53.110;8.468;2023-05-29T10:40:12;15.40;99.90
22065;DHT22;11197;53.110;8.468;2023-05-29T10:42:48;15.30;99.90
22065;DHT22;11197;53.110;8.468;2023-05-29T10:50:37;15.50;99.90
22065;DHT22;11197;53.110;8.468;2023-05-29T10:53:06;15.50;99.90
22065;DHT22;11197;53.110;8.468;2023-05-29T10:55:39;15.60;99.90
22065;DHT22;11197;53.110;8.468;2023-05-29T10:58:12;15.60;99.90
22065;DHT22;11197;53.110;8.468;2023-05-29T11:00:42;15.60;99.90
22065;DHT22;11197;53.110;8.468;2023-05-29T11:03:09;15.60;99.90
22065;DHT22;11197;53.110;8.468;2023-05-29T11:06:05;15.50;99.90
22065;DHT22;11197;53.110;8.468;2023-05-29T11:08:36;15.60;99.90
22065;DHT22;11197;53.110;8.468;2023-05-29T11:11:31;15.50;99.90
22065;DHT22;11197;53.110;8.468;2023-05-29T11:14:07;15.60;99.90
22065;DHT22;11197;53.110;8.468;2023-05-29T11:19:05;15.50;99.90
22065;DHT22;11197;53.110;8.468;2023-05-29T11:22:07;15.50;99.90
22065;DHT22;11197;53.110;8.468;2023-05-29T11:24:36;15.60;99.90
22065;DHT22;11197;53.110;8.468;2023-05-29T11:27:05;15.60;99.90
22065;DHT22;11197;53.110;8.468;2023-05-29T11:29:35;15.60;99.90
22065;DHT22;11197;53.110;8.468;2023-05-29T11:32:13;15.70;99.90
22065;DHT22;11197;53.110;8.468;2023-05-29T11:34:41;15.70;99.90
22065;DHT22;11197;53.110;8.468;2023-05-29T11:37:15;15.70;99.90
22065;DHT22;11197;53.110;8.468;2023-05-29T11:39:46;15.70;99.90
22065;DHT22;11197;53.110;8.468;2023-05-29T11:42:20;15.70;99.90
22065;DHT22;11197;53.110;8.468;2023-05-29T11:44:47;15.80;99.90
22065;DHT22;11197;53.110;8.468;2023-05-29T11:47:19;15.80;99.90
22065;DHT22;11197;53.110;8.468;2023-05-29T11:49:56;15.80;99.90
22065;DHT22;11197;53.110;8.468;2023-05-29T11:52:23;15.90;99.90
22065;DHT22;11197;53.110;8.468;2023-05-29T11:55:06;15.90;99.90
22065;DHT22;11197;53.110;8.468;2023-05-29T11:57:33;15.90;99.90
22065;DHT22;11197;53.110;8.468;2023-05-29T12:00:02;15.90;99.90
22065;DHT22;11197;53.110;8.468;2023-05-29T12:02:37;15.90;99.90
22065;DHT22;11197;53.110;8.468;2023-05-29T12:05:15;15.90;99.90
22065;DHT22;11197;53.110;8.468;2023-05-29T12:07:51;15.90;99.90
22065;DHT22;11197;53.110;8.468;2023-05-29T12:10:18;15.90;99.90
22065;DHT22;11197;53.110;8.468;2023-05-29T12:12:53;15.90;99.90
22065;DHT22;11197;53.110;8.468;2023-05-29T12:15:19;15.90;99.90
22065;DHT22;11197;53.110;8.468;2023-05-29T12:17:48;15.90;99.90
22065;DHT22;11197;53.110;8.468;2023-05-29T12:20:14;16.00;99.90
22065;DHT22;11197;53.110;8.468;2023-05-29T12:22:42;16.00;99.90
22065;DHT22;11197;53.110;8.468;2023-05-29T12:25:12;16.00;99.90
22065;DHT22;11197;53.110;8.468;2023-05-29T12:27:43;16.00;99.90
22065;DHT22;11197;53.110;8.468;2023-05-29T12:30:21;16.00;99.90
22065;DHT22;11197;53.110;8.468;2023-05-29T12:32:51;16.00;99.90
22065;DHT22;11197;53.110;8.468;2023-05-29T12:35:18;16.00;99.90
22065;DHT22;11197;53.110;8.468;2023-05-29T12:37:45;16.10;99.90
22065;DHT22;11197;53.110;8.468;2023-05-29T12:40:20;16.00;99.90
22065;DHT22;11197;53.110;8.468;2023-05-29T12:42:47;16.00;99.90
22065;DHT22;11197;53.110;8.468;2023-05-29T12:45:13;16.00;99.90
22065;DHT22;11197;53.110;8.468;2023-05-29T12:48:12;16.10;99.90
22065;DHT22;11197;53.110;8.468;2023-05-29T12:50:39;16.10;99.90
22065;DHT22;11197;53.110;8.468;2023-05-29T12:53:06;16.20;99.90
22065;DHT22;11197;53.110;8.468;2023-05-29T12:55:36;16.20;99.90
22065;DHT22;11197;53.110;8.468;2023-05-29T12:58:03;16.20;99.90
22065;DHT22;11197;53.110;8.468;2023-05-29T13:00:29;16.20;99.90
22065;DHT22;11197;53.110;8.468;2023-05-29T13:02:56;16.20;99.90
22065;DHT22;11197;53.110;8.468;2023-05-29T13:05:23;16.20;99.90
22065;DHT22;11197;53.110;8.468;2023-05-29T13:07:52;16.20;99.90
22065;DHT22;11197;53.110;8.468;2023-05-29T13:10:18;16.30;99.90
22065;DHT22;11197;53.110;8.468;2023-05-29T13:12:45;16.30;99.90
22065;DHT22;11197;53.110;8.468;2023-05-29T13:15:13;16.30;99.90
22065;DHT22;11197;53.110;8.468;2023-05-29T13:17:40;16.30;99.90
22065;DHT22;11197;53.110;8.468;2023-05-29T13:20:08;16.30;99.90
22065;DHT22;11197;53.110;8.468;2023-05-29T13:22:35;16.30;99.90
22065;DHT22;11197;53.110;8.468;2023-05-29T13:25:01;16.40;99.90
22065;DHT22;11197;53.110;8.468;2023-05-29T13:27:27;16.40;99.90
22065;DHT22;11197;53.110;8.468;2023-05-29T13:29:54;16.40;99.90
22065;DHT22;11197;53.110;8.468;2023-05-29T13:32:20;16.40;99.90
22065;DHT22;11197;53.110;8.468;2023-05-29T13:34:47;16.40;99.90
22065;DHT22;11197;53.110;8.468;2023-05-29T13:37:12;16.50;99.90
22065;DHT22;11197;53.110;8.468;2023-05-29T13:39:38;16.50;99.90
22065;DHT22;11197;53.110;8.468;2023-05-29T13:42:05;16.50;99.90
22065;DHT22;11197;53.110;8.468;2023-05-29T13:44:32;16.50;99.90
22065;DHT22;11197;53.110;8.468;2023-05-29T13:46:57;16.50;99.90
22065;DHT22;11197;53.110;8.468;2023-05-29T13:49:26;16.50;99.90
22065;DHT22;11197;53.110;8.468;2023-05-29T13:51:52;16.60;99.90
22065;DHT22;11197;53.110;8.468;2023-05-29T13:54:18;16.60;99.90
22065;DHT22;11197;53.110;8.468;2023-05-29T13:56:43;16.60;99.90
22065;DHT22;11197;53.110;8.468;2023-05-29T13:59:09;16.60;99.90
22065;DHT22;11197;53.110;8.468;2023-05-29T14:01:35;16.60;99.90
22065;DHT22;11197;53.110;8.468;2023-05-29T14:04:01;16.60;99.90
22065;DHT22;11197;53.110;8.468;2023-05-29T14:06:27;16.60;99.90
22065;DHT22;11197;53.110;8.468;2023-05-29T14:08:53;16.70;99.90
22065;DHT22;11197;53.110;8.468;2023-05-29T14:11:19;16.70;99.90
22065;DHT22;11197;53.110;8.468;2023-05-29T14:13:45;16.70;99.90
22065;DHT22;11197;53.110;8.468;2023-05-29T14:16:11;16.80;99.90
22065;DHT22;11197;53.110;8.468;2023-05-29T14:18:37;16.80;99.90
22065;DHT22;11197;53.110;8.468;2023-05-29T14:21:03;16.80;99.90
22065;DHT22;11197;53.110;8.468;2023-05-29T14:23:29;16.70;99.90
22065;DHT22;11197;53.110;8.468;2023-05-29T14:25:54;16.70;99.90
22065;DHT22;11197;53.110;8.468;2023-05-29T14:28:20;16.80;99.90
22065;DHT22;11197;53.110;8.468;2023-05-29T14:30:46;16.70;99.90
22065;DHT22;11197;53.110;8.468;2023-05-29T14:33:12;16.80;99.90
22065;DHT22;11197;53.110;8.468;2023-05-29T14:35:38;16.80;99.90
22065;DHT22;11197;53.110;8.468;2023-05-29T14:38:04;16.80;99.90
22065;DHT22;11197;53.110;8.468;2023-05-29T14:40:29;16.90;99.90
22065;DHT22;11197;53.110;8.468;2023-05-29T14:42:56;17.00;99.90
22065;DHT22;11197;53.110;8.468;2023-05-29T14:45:22;17.00;99.90
22065;DHT22;11197;53.110;8.468;2023-05-29T14:47:48;17.10;99.90
22065;DHT22;11197;53.110;8.468;2023-05-29T14:50:14;17.10;99.90
22065;DHT22;11197;53.110;8.468;2023-05-29T14:52:40;17.10;99.90
22065;DHT22;11197;53.110;8.468;2023-05-29T14:55:06;17.10;99.90
22065;DHT22;11197;53.110;8.468;2023-05-29T14:57:32;17.10;99.90
22065;DHT22;11197;53.110;8.468;2023-05-29T15:00:01;17.00;99.90
22065;DHT22;11197;53.110;8.468;2023-05-29T15:02:28;17.00;99.50
22065;DHT22;11197;53.110;8.468;2023-05-29T15:04:54;16.90;99.90
22065;DHT22;11197;53.110;8.468;2023-05-29T15:07:21;16.90;99.90
22065;DHT22;11197;53.110;8.468;2023-05-29T15:09:47;17.00;99.60
22065;DHT22;11197;53.110;8.468;2023-05-29T15:12:13;16.90;99.00
22065;DHT22;11197;53.110;8.468;2023-05-29T15:14:39;17.00;98.40
22065;DHT22;11197;53.110;8.468;2023-05-29T15:17:05;17.00;96.90
22065;DHT22;11197;53.110;8.468;2023-05-29T15:19:31;17.10;96.90
22065;DHT22;11197;53.110;8.468;2023-05-29T15:21:57;17.00;96.20
22065;DHT22;11197;53.110;8.468;2023-05-29T15:24:24;17.00;96.80
22065;DHT22;11197;53.110;8.468;2023-05-29T15:26:50;17.00;97.90
22065;DHT22;11197;53.110;8.468;2023-05-29T15:29:16;17.00;99.00
22065;DHT22;11197;53.110;8.468;2023-05-29T15:31:42;17.10;94.20
22065;DHT22;11197;53.110;8.468;2023-05-29T15:34:08;17.00;93.20
22065;DHT22;11197;53.110;8.468;2023-05-29T15:36:34;17.00;90.20
22065;DHT22;11197;53.110;8.468;2023-05-29T15:39:02;16.90;90.30
22065;DHT22;11197;53.110;8.468;2023-05-29T15:41:29;16.90;88.50
22065;DHT22;11197;53.110;8.468;2023-05-29T15:43:56;16.80;88.90
22065;DHT22;11197;53.110;8.468;2023-05-29T15:46:26;16.80;90.60
22065;DHT22;11197;53.110;8.468;2023-05-29T15:48:52;16.90;91.90
22065;DHT22;11197;53.110;8.468;2023-05-29T15:51:19;17.00;92.40
22065;DHT22;11197;53.110;8.468;2023-05-29T15:53:45;17.10;92.10
22065;DHT22;11197;53.110;8.468;2023-05-29T15:56:11;17.10;92.10
22065;DHT22;11197;53.110;8.468;2023-05-29T15:58:37;17.10;91.60
22065;DHT22;11197;53.110;8.468;2023-05-29T16:01:03;17.20;92.30
22065;DHT22;11197;53.110;8.468;2023-05-29T16:03:29;17.20;90.10